| time (UTC) | temp C | wind direction | speed KPH | gust KPH | rain 1hr cm | rain 24hr cm | rain mn cm | humidity % | barometer mb |
| 20260510171044 | 31 | 218 | 8.0 | 20.9 | 0.00 | 0.00 | 0.00 | 60 | 1043.1 |
| 20260510170545 | 30 | 232 | 6.4 | 20.9 | 0.00 | 0.00 | 0.00 | 63 | 1043.3 |
| 20260510170049 | 30 | 254 | 9.7 | 20.9 | 0.00 | 0.00 | 0.00 | 63 | 1043.4 |
| 20260510165545 | 31 | 294 | 6.4 | 19.3 | 0.00 | 0.00 | 0.00 | 60 | 1043.3 |
| 20260510165047 | 32 | 275 | 8.0 | 19.3 | 0.00 | 0.00 | 0.00 | 55 | 1043.2 |
| 20260510164554 | 32 | 225 | 8.0 | 19.3 | 0.00 | 0.00 | 0.00 | 54 | 1043.3 |
| 20260510164042 | 32 | 315 | 6.4 | 19.3 | 0.00 | 0.00 | 0.00 | 53 | 1043.4 |
| 20260510163543 | 32 | 310 | 11.3 | 20.9 | 0.00 | 0.00 | 0.00 | 56 | 1043.4 |
| 20260510163044 | 31 | 244 | 11.3 | 25.7 | 0.00 | 0.00 | 0.00 | 56 | 1043.5 |
| 20260510162539 | 31 | 271 | 4.8 | 20.9 | 0.00 | 0.00 | 0.00 | 58 | 1043.5 |
| 20260510162039 | 31 | 292 | 4.8 | 19.3 | 0.00 | 0.00 | 0.00 | 58 | 1043.5 |
| 20260510161546 | 31 | 250 | 3.2 | 16.1 | 0.00 | 0.00 | 0.00 | 60 | 1043.7 |
| 20260510161039 | 31 | 240 | 4.8 | 20.9 | 0.00 | 0.00 | 0.00 | 62 | 1043.7 |
| 20260510160538 | 31 | 241 | 9.7 | 24.1 | 0.00 | 0.00 | 0.00 | 61 | 1043.8 |
| 20260510160049 | 31 | 272 | 11.3 | 24.1 | 0.00 | 0.00 | 0.00 | 60 | 1043.8 |
| 20260510155536 | 32 | 217 | 1.6 | 12.9 | 0.00 | 0.00 | 0.00 | 60 | 1043.7 |
| 20260510155035 | 31 | 277 | 6.4 | 14.5 | 0.00 | 0.00 | 0.00 | 62 | 1043.8 |
| 20260510154537 | 31 | 223 | 4.8 | 14.5 | 0.00 | 0.00 | 0.00 | 65 | 1043.8 |
| 20260510154031 | 30 | 300 | 3.2 | 9.7 | 0.00 | 0.00 | 0.00 | 69 | 1043.7 |
| 20260510153531 | 29 | 268 | 3.2 | 11.3 | 0.00 | 0.00 | 0.00 | 69 | 1043.8 |
| 20260510153033 | 30 | 305 | 3.2 | 11.3 | 0.00 | 0.00 | 0.00 | 69 | 1043.7 |
| 20260510152531 | 30 | 291 | 3.2 | 11.3 | 0.00 | 0.00 | 0.00 | 68 | 1043.8 |
| 20260510152032 | 30 | 252 | 3.2 | 12.9 | 0.00 | 0.00 | 0.00 | 65 | 1043.8 |
| 20260510151531 | 30 | 121 | 4.8 | 17.7 | 0.00 | 0.00 | 0.00 | 67 | 1043.8 |
| 20260510151030 | 30 | 281 | 8.0 | 17.7 | 0.00 | 0.00 | 0.00 | 70 | 1043.8 |
| 20260510150529 | 30 | 186 | 6.4 | 14.5 | 0.00 | 0.00 | 0.00 | 66 | 1043.8 |
| 20260510150029 | 29 | 268 | 3.2 | 11.3 | 0.00 | 0.00 | 0.00 | 70 | 1043.8 |
| 20260510145528 | 30 | 289 | 0.0 | 8.0 | 0.00 | 0.00 | 0.00 | 69 | 1043.8 |
| 20260510145027 | 30 | 260 | 1.6 | 11.3 | 0.00 | 0.00 | 0.00 | 67 | 1043.8 |
| 20260510144527 | 29 | 197 | 4.8 | 14.5 | 0.00 | 0.00 | 0.00 | 70 | 1043.8 |
| 20260510144025 | 30 | 202 | 4.8 | 12.9 | 0.00 | 0.00 | 0.00 | 70 | 1043.7 |
| 20260510143523 | 29 | 205 | 3.2 | 12.9 | 0.00 | 0.00 | 0.00 | 73 | 1043.7 |
| 20260510143023 | 29 | 225 | 6.4 | 14.5 | 0.00 | 0.00 | 0.00 | 71 | 1043.8 |
| 20260510142521 | 28 | 254 | 3.2 | 16.1 | 0.00 | 0.00 | 0.00 | 74 | 1043.8 |
| 20260510142019 | 28 | 271 | 9.7 | 16.1 | 0.00 | 0.00 | 0.00 | 72 | 1043.6 |
| 20260510141519 | 28 | 244 | 4.8 | 14.5 | 0.00 | 0.00 | 0.00 | 73 | 1043.5 |
| 20260510141018 | 28 | 241 | 1.6 | 11.3 | 0.00 | 0.00 | 0.00 | 72 | 1043.6 |
| 20260510140517 | 28 | 222 | 4.8 | 12.9 | 0.00 | 0.00 | 0.00 | 75 | 1043.6 |
| 20260510140015 | 28 | 355 | 1.6 | 12.9 | 0.00 | 0.00 | 0.00 | 75 | 1043.6 |
| 20260510135514 | 28 | 182 | 3.2 | 12.9 | 0.00 | 0.00 | 0.00 | 75 | 1043.5 |
| 20260510135014 | 28 | 292 | 6.4 | 14.5 | 0.00 | 0.00 | 0.00 | 75 | 1043.7 |
| 20260510134512 | 28 | 281 | 6.4 | 16.1 | 0.00 | 0.00 | 0.00 | 74 | 1043.6 |
| 20260510134012 | 28 | 254 | 6.4 | 16.1 | 0.00 | 0.00 | 0.00 | 75 | 1043.5 |
| 20260510133511 | 27 | 123 | 1.6 | 9.7 | 0.00 | 0.00 | 0.00 | 78 | 1043.5 |
| 20260510133008 | 27 | 191 | 4.8 | 11.3 | 0.00 | 0.00 | 0.00 | 78 | 1043.4 |
| 20260510132509 | 27 | 258 | 4.8 | 11.3 | 0.00 | 0.00 | 0.00 | 78 | 1043.4 |
| 20260510132006 | 27 | 5 | 3.2 | 14.5 | 0.00 | 0.00 | 0.00 | 80 | 1043.3 |
| 20260510131504 | 26 | 197 | 4.8 | 14.5 | 0.00 | 0.00 | 0.00 | 81 | 1043.3 |
| 20260510131003 | 26 | 196 | 0.0 | 12.9 | 0.00 | 0.00 | 0.00 | 82 | 1043.3 |
| 20260510130502 | 26 | 234 | 1.6 | 9.7 | 0.00 | 0.00 | 0.00 | 84 | 1043.4 |
| 20260510130100 | 26 | 144 | 3.2 | 8.0 | 0.00 | 0.00 | 0.00 | 84 | 1043.3 |
| 20260510125558 | 25 | 257 | 1.6 | 9.7 | 0.00 | 0.00 | 0.00 | 87 | 1043.4 |
| 20260510125057 | 25 | 116 | 3.2 | 12.9 | 0.00 | 0.00 | 0.00 | 89 | 1043.4 |
| 20260510124611 | 24 | 199 | 0.0 | 12.9 | 0.00 | 0.00 | 0.00 | 92 | 1043.4 |
| 20260510124058 | 24 | 306 | 4.8 | 12.9 | 0.00 | 0.00 | 0.00 | 94 | 1043.4 |
| 20260510123553 | 23 | 229 | 1.6 | 9.7 | 0.00 | 0.00 | 0.00 | 97 | 1043.1 |
| 20260510123052 | 23 | 200 | 3.2 | 9.7 | 0.00 | 0.00 | 0.00 | 100 | 1043.1 |
| 20260510122551 | 23 | 252 | 1.6 | 8.0 | 0.00 | 0.00 | 0.00 | 100 | 1043.0 |
| 20260510122049 | 23 | 204 | 1.6 | 8.0 | 0.00 | 0.00 | 0.00 | 100 | 1043.0 |
| 20260510121547 | 22 | 206 | 1.6 | 6.4 | 0.00 | 0.00 | 0.00 | 100 | 1043.1 |
| 20260510121046 | 22 | 237 | 1.6 | 6.4 | 0.00 | 0.00 | 0.00 | 100 | 1043.0 |
| 20260510120545 | 22 | 190 | 0.0 | 4.8 | 0.00 | 0.00 | 0.00 | 100 | 1043.0 |
| 20260510120043 | 22 | 213 | 0.0 | 3.2 | 0.00 | 0.00 | 0.00 | 100 | 1042.9 |
| 20260510115541 | 22 | 235 | 0.0 | 3.2 | 0.00 | 0.00 | 0.00 | 100 | 1042.8 |
| 20260510115041 | 22 | 222 | 0.0 | 3.2 | 0.00 | 0.00 | 0.00 | 100 | 1042.7 |
| 20260510114542 | 21 | 192 | 0.0 | 1.6 | 0.00 | 0.00 | 0.00 | 100 | 1042.7 |
| 20260510114040 | 21 | 178 | 0.0 | 1.6 | 0.00 | 0.00 | 0.00 | 100 | 1042.6 |
| 20260510113540 | 21 | 149 | 0.0 | 0.0 | 0.00 | 0.00 | 0.00 | 100 | 1042.5 |
| 20260510113037 | 21 | 149 | 0.0 | 0.0 | 0.00 | 0.00 | 0.00 | 100 | 1042.4 |
| 20260510112535 | 21 | 149 | 0.0 | 0.0 | 0.00 | 0.00 | 0.00 | 100 | 1042.3 |
| 20260510112035 | 21 | 149 | 0.0 | 0.0 | 0.00 | 0.00 | 0.00 | 100 | 1042.3 |
| 20260510111557 | 21 | 149 | 0.0 | 0.0 | 0.00 | 0.00 | 0.00 | 100 | 1042.2 |
| 20260510111034 | 21 | 149 | 0.0 | 0.0 | 0.00 | 0.00 | 0.00 | 100 | 1042.2 |
| 20260510110533 | 21 | 149 | 0.0 | 0.0 | 0.00 | 0.00 | 0.00 | 100 | 1042.1 |
| 20260510110032 | 20 | 149 | 0.0 | 0.0 | 0.00 | 0.00 | 0.00 | 100 | 1042.0 |
| 20260510105531 | 21 | 149 | 0.0 | 0.0 | 0.00 | 0.00 | 0.00 | 100 | 1041.9 |
| 20260510105031 | 21 | 149 | 0.0 | 0.0 | 0.00 | 0.00 | 0.00 | 100 | 1041.8 |
| 20260510104539 | 21 | 149 | 0.0 | 0.0 | 0.00 | 0.00 | 0.00 | 100 | 1041.7 |
| 20260510104030 | 21 | 149 | 0.0 | 0.0 | 0.00 | 0.00 | 0.00 | 100 | 1041.7 |
| 20260510103529 | 21 | 151 | 0.0 | 0.0 | 0.00 | 0.00 | 0.00 | 100 | 1041.6 |
| 20260510103034 | 21 | 152 | 0.0 | 0.0 | 0.00 | 0.00 | 0.00 | 100 | 1041.5 |
| 20260510102529 | 21 | 155 | 0.0 | 0.0 | 0.00 | 0.00 | 0.00 | 100 | 1041.5 |
| 20260510102029 | 21 | 155 | 0.0 | 0.0 | 0.00 | 0.00 | 0.00 | 100 | 1041.4 |
| 20260510101528 | 21 | 155 | 0.0 | 0.0 | 0.00 | 0.00 | 0.00 | 100 | 1041.3 |
| 20260510101027 | 21 | 155 | 0.0 | 0.0 | 0.00 | 0.00 | 0.00 | 100 | 1041.3 |
| 20260510100529 | 21 | 155 | 0.0 | 0.0 | 0.00 | 0.00 | 0.00 | 100 | 1041.2 |
| 20260510100027 | 21 | 155 | 0.0 | 0.0 | 0.00 | 0.00 | 0.00 | 100 | 1041.1 |
| 20260510095527 | 21 | 155 | 0.0 | 0.0 | 0.00 | 0.00 | 0.00 | 100 | 1041.1 |
| 20260510095031 | 21 | 155 | 0.0 | 0.0 | 0.00 | 0.00 | 0.00 | 100 | 1041.1 |
| 20260510094529 | 22 | 155 | 0.0 | 0.0 | 0.00 | 0.00 | 0.00 | 100 | 1041.0 |
| 20260510094026 | 22 | 155 | 0.0 | 0.0 | 0.00 | 0.00 | 0.00 | 100 | 1041.0 |
| 20260510093526 | 22 | 155 | 0.0 | 0.0 | 0.00 | 0.00 | 0.00 | 100 | 1040.8 |
| 20260510093026 | 22 | 155 | 0.0 | 1.6 | 0.00 | 0.00 | 0.00 | 100 | 1040.7 |
| 20260510092526 | 22 | 155 | 0.0 | 1.6 | 0.00 | 0.00 | 0.00 | 100 | 1040.7 |
| 20260510092025 | 22 | 161 | 0.0 | 1.6 | 0.00 | 0.00 | 0.00 | 100 | 1040.7 |
| 20260510091545 | 22 | 167 | 0.0 | 3.2 | 0.00 | 0.00 | 0.00 | 100 | 1040.7 |
| 20260510091025 | 22 | 185 | 0.0 | 4.8 | 0.00 | 0.00 | 0.00 | 100 | 1040.6 |
| 20260510090525 | 22 | 223 | 0.0 | 3.2 | 0.00 | 0.00 | 0.00 | 100 | 1040.6 |
| 20260510090025 | 22 | 190 | 0.0 | 3.2 | 0.00 | 0.00 | 0.00 | 100 | 1040.6 |
| 20260510085525 | 22 | 155 | 0.0 | 0.0 | 0.00 | 0.00 | 0.00 | 100 | 1040.5 |
| 20260510085023 | 22 | 196 | 0.0 | 3.2 | 0.00 | 0.00 | 0.00 | 100 | 1040.4 |
| 20260510084525 | 22 | 194 | 0.0 | 4.8 | 0.00 | 0.00 | 0.00 | 100 | 1040.3 |
| 20260510084020 | 22 | 194 | 0.0 | 4.8 | 0.00 | 0.00 | 0.00 | 100 | 1040.3 |
| 20260510083521 | 22 | 205 | 0.0 | 3.2 | 0.00 | 0.00 | 0.00 | 100 | 1040.4 |
| 20260510083018 | 22 | 172 | 0.0 | 3.2 | 0.00 | 0.00 | 0.00 | 100 | 1040.4 |
| 20260510082516 | 22 | 170 | 0.0 | 3.2 | 0.00 | 0.00 | 0.00 | 100 | 1040.3 |
| 20260510082014 | 22 | 144 | 0.0 | 3.2 | 0.00 | 0.00 | 0.00 | 100 | 1040.3 |
| 20260510081529 | 22 | 194 | 0.0 | 4.8 | 0.00 | 0.00 | 0.00 | 100 | 1040.3 |
| 20260510081012 | 22 | 119 | 0.0 | 6.4 | 0.00 | 0.00 | 0.00 | 100 | 1040.2 |
| 20260510080510 | 22 | 124 | 0.0 | 4.8 | 0.00 | 0.00 | 0.00 | 100 | 1040.1 |
| 20260510080011 | 22 | 219 | 0.0 | 4.8 | 0.00 | 0.00 | 0.00 | 100 | 1040.2 |
| 20260510075509 | 22 | 126 | 1.6 | 3.2 | 0.00 | 0.00 | 0.00 | 100 | 1040.2 |
| 20260510075006 | 22 | 275 | 0.0 | 6.4 | 0.00 | 0.00 | 0.00 | 100 | 1040.2 |
| 20260510074507 | 22 | 242 | 0.0 | 8.0 | 0.00 | 0.00 | 0.00 | 100 | 1040.2 |
| 20260510074004 | 22 | 152 | 1.6 | 6.4 | 0.00 | 0.00 | 0.00 | 100 | 1040.2 |
| 20260510073501 | 22 | 195 | 0.0 | 6.4 | 0.00 | 0.00 | 0.00 | 100 | 1040.1 |
| 20260510073100 | 22 | 169 | 0.0 | 6.4 | 0.00 | 0.00 | 0.00 | 100 | 1040.1 |
| 20260510072558 | 22 | 221 | 1.6 | 6.4 | 0.00 | 0.00 | 0.00 | 100 | 1040.2 |
| 20260510072103 | 22 | 169 | 1.6 | 6.4 | 0.00 | 0.00 | 0.00 | 100 | 1040.1 |
| 20260510071555 | 22 | 159 | 0.0 | 8.0 | 0.00 | 0.00 | 0.00 | 100 | 1040.3 |
| 20260510071055 | 22 | 165 | 0.0 | 3.2 | 0.00 | 0.00 | 0.00 | 100 | 1040.4 |
| 20260510070555 | 22 | 140 | 0.0 | 4.8 | 0.00 | 0.00 | 0.00 | 100 | 1040.4 |
| 20260510065553 | 21 | 182 | 0.0 | 3.2 | 0.00 | 0.00 | 0.00 | 100 | 1040.4 |
| 20260510065052 | 21 | 192 | 0.0 | 3.2 | 0.00 | 0.00 | 0.00 | 100 | 1040.5 |
| 20260510064607 | 21 | 175 | 0.0 | 3.2 | 0.00 | 0.00 | 0.00 | 99 | 1040.5 |
| 20260510064049 | 21 | 179 | 0.0 | 8.0 | 0.00 | 0.00 | 0.00 | 99 | 1040.6 |
| 20260510063549 | 21 | 192 | 0.0 | 4.8 | 0.00 | 0.00 | 0.00 | 99 | 1040.6 |
| 20260510063049 | 21 | 163 | 0.0 | 4.8 | 0.00 | 0.00 | 0.00 | 99 | 1040.8 |
| 20260510062550 | 21 | 155 | 0.0 | 3.2 | 0.00 | 0.00 | 0.00 | 98 | 1040.9 |
| 20260510062046 | 21 | 171 | 0.0 | 3.2 | 0.00 | 0.00 | 0.00 | 98 | 1041.0 |
| 20260510061550 | 21 | 152 | 0.0 | 3.2 | 0.00 | 0.00 | 0.00 | 98 | 1041.1 |
| 20260510061048 | 21 | 144 | 0.0 | 3.2 | 0.00 | 0.00 | 0.00 | 97 | 1041.1 |
| 20260510060546 | 21 | 153 | 0.0 | 3.2 | 0.00 | 0.00 | 0.00 | 97 | 1041.1 |
| 20260510060044 | 21 | 217 | 0.0 | 1.6 | 0.00 | 0.00 | 0.00 | 96 | 1041.3 |
| 20260510055542 | 21 | 217 | 0.0 | 1.6 | 0.00 | 0.00 | 0.00 | 97 | 1041.4 |
| 20260510055042 | 21 | 175 | 0.0 | 0.0 | 0.00 | 0.00 | 0.00 | 97 | 1041.4 |
| 20260510054542 | 21 | 131 | 0.0 | 0.0 | 0.00 | 0.00 | 0.00 | 97 | 1041.4 |
| 20260510054041 | 21 | 131 | 0.0 | 0.0 | 0.00 | 0.00 | 0.00 | 97 | 1041.5 |
| 20260510053540 | 21 | 131 | 0.0 | 0.0 | 0.00 | 0.00 | 0.00 | 97 | 1041.6 |
| 20260510053041 | 21 | 131 | 0.0 | 0.0 | 0.00 | 0.00 | 0.00 | 97 | 1041.6 |
| 20260510052539 | 21 | 131 | 0.0 | 0.0 | 0.00 | 0.00 | 0.00 | 97 | 1041.8 |
| 20260510052040 | 21 | 131 | 0.0 | 0.0 | 0.00 | 0.00 | 0.00 | 97 | 1041.9 |
| 20260510051539 | 21 | 131 | 0.0 | 0.0 | 0.00 | 0.00 | 0.00 | 97 | 1042.0 |
| 20260510051037 | 21 | 131 | 0.0 | 0.0 | 0.00 | 0.00 | 0.00 | 97 | 1042.0 |
| 20260510050537 | 21 | 131 | 0.0 | 0.0 | 0.00 | 0.00 | 0.00 | 96 | 1041.9 |
| 20260510050038 | 21 | 131 | 0.0 | 0.0 | 0.00 | 0.00 | 0.00 | 95 | 1041.9 |
| 20260510045536 | 21 | 131 | 0.0 | 0.0 | 0.00 | 0.00 | 0.00 | 94 | 1042.0 |
| 20260510045036 | 21 | 131 | 0.0 | 0.0 | 0.00 | 0.00 | 0.00 | 94 | 1042.2 |
| 20260510044536 | 21 | 131 | 0.0 | 0.0 | 0.00 | 0.00 | 0.00 | 95 | 1042.3 |
| 20260510044033 | 21 | 131 | 0.0 | 0.0 | 0.00 | 0.00 | 0.00 | 94 | 1042.3 |
| 20260510043533 | 22 | 131 | 0.0 | 0.0 | 0.00 | 0.00 | 0.00 | 93 | 1042.3 |
| 20260510043032 | 22 | 131 | 0.0 | 0.0 | 0.00 | 0.00 | 0.00 | 92 | 1042.3 |
| 20260510042530 | 22 | 131 | 0.0 | 0.0 | 0.00 | 0.00 | 0.00 | 91 | 1042.4 |
| 20260510042030 | 22 | 131 | 0.0 | 0.0 | 0.00 | 0.00 | 0.00 | 90 | 1042.4 |
| 20260510041531 | 22 | 131 | 0.0 | 0.0 | 0.00 | 0.00 | 0.00 | 91 | 1042.5 |
| 20260510041027 | 22 | 131 | 0.0 | 0.0 | 0.00 | 0.00 | 0.00 | 90 | 1042.5 |
| 20260510040526 | 22 | 131 | 0.0 | 0.0 | 0.00 | 0.00 | 0.00 | 90 | 1042.5 |
| 20260510040027 | 22 | 131 | 0.0 | 0.0 | 0.00 | 0.00 | 0.00 | 89 | 1042.5 |
| 20260510035525 | 22 | 131 | 0.0 | 0.0 | 0.00 | 0.00 | 0.00 | 88 | 1042.4 |
| 20260510035025 | 22 | 131 | 0.0 | 0.0 | 0.00 | 0.00 | 0.00 | 89 | 1042.3 |
| 20260510034525 | 22 | 131 | 0.0 | 0.0 | 0.00 | 0.00 | 0.00 | 88 | 1042.5 |
| 20260510034024 | 22 | 131 | 0.0 | 1.6 | 0.00 | 0.00 | 0.00 | 88 | 1042.5 |
| 20260510033524 | 22 | 131 | 0.0 | 1.6 | 0.00 | 0.00 | 0.00 | 88 | 1042.5 |
| 20260510033024 | 22 | 131 | 0.0 | 0.0 | 0.00 | 0.00 | 0.00 | 88 | 1042.4 |
| 20260510032523 | 23 | 131 | 0.0 | 0.0 | 0.00 | 0.00 | 0.00 | 88 | 1042.5 |
| 20260510032023 | 23 | 131 | 0.0 | 0.0 | 0.00 | 0.00 | 0.00 | 88 | 1042.5 |
| 20260510031527 | 22 | 131 | 0.0 | 0.0 | 0.00 | 0.00 | 0.00 | 88 | 1042.5 |
| 20260510031022 | 22 | 131 | 0.0 | 0.0 | 0.00 | 0.00 | 0.00 | 88 | 1042.4 |
| 20260510030522 | 22 | 131 | 0.0 | 1.6 | 0.00 | 0.00 | 0.00 | 88 | 1042.3 |
| 20260510030022 | 22 | 131 | 0.0 | 1.6 | 0.00 | 0.00 | 0.00 | 88 | 1042.3 |
| 20260510025522 | 22 | 130 | 0.0 | 0.0 | 0.00 | 0.00 | 0.00 | 89 | 1042.2 |
| 20260510025022 | 22 | 122 | 0.0 | 0.0 | 0.00 | 0.00 | 0.00 | 88 | 1042.2 |
| 20260510024524 | 22 | 122 | 0.0 | 1.6 | 0.00 | 0.00 | 0.00 | 88 | 1042.1 |
| 20260510024020 | 22 | 122 | 0.0 | 1.6 | 0.00 | 0.00 | 0.00 | 87 | 1042.2 |
| 20260510023521 | 22 | 122 | 0.0 | 1.6 | 0.00 | 0.00 | 0.00 | 87 | 1042.1 |
| 20260510023021 | 22 | 122 | 0.0 | 0.0 | 0.00 | 0.00 | 0.00 | 87 | 1042.0 |
| 20260510022521 | 22 | 122 | 0.0 | 0.0 | 0.00 | 0.00 | 0.00 | 87 | 1041.9 |
| 20260510022022 | 22 | 122 | 0.0 | 0.0 | 0.00 | 0.00 | 0.00 | 87 | 1041.9 |
| 20260510021520 | 22 | 122 | 0.0 | 0.0 | 0.00 | 0.00 | 0.00 | 87 | 1041.8 |
| 20260510021022 | 22 | 134 | 0.0 | 0.0 | 0.00 | 0.00 | 0.00 | 87 | 1041.8 |
| 20260510020521 | 22 | 134 | 0.0 | 4.8 | 0.00 | 0.00 | 0.00 | 86 | 1041.6 |
| 20260510020020 | 22 | 129 | 0.0 | 4.8 | 0.00 | 0.00 | 0.00 | 86 | 1041.5 |
| 20260510015523 | 23 | 138 | 0.0 | 3.2 | 0.00 | 0.00 | 0.00 | 87 | 1041.5 |
| 20260510015020 | 23 | 142 | 0.0 | 3.2 | 0.00 | 0.00 | 0.00 | 86 | 1041.4 |
| 20260510014526 | 23 | 145 | 0.0 | 3.2 | 0.00 | 0.00 | 0.00 | 87 | 1041.4 |
| 20260510014019 | 23 | 131 | 0.0 | 0.0 | 0.00 | 0.00 | 0.00 | 86 | 1041.4 |
| 20260510013524 | 23 | 131 | 0.0 | 1.6 | 0.00 | 0.00 | 0.00 | 86 | 1041.4 |
| 20260510013022 | 23 | 131 | 0.0 | 1.6 | 0.00 | 0.00 | 0.00 | 86 | 1041.5 |
| 20260510012520 | 23 | 165 | 0.0 | 1.6 | 0.00 | 0.00 | 0.00 | 86 | 1041.4 |
| 20260510012018 | 23 | 106 | 0.0 | 1.6 | 0.00 | 0.00 | 0.00 | 85 | 1041.3 |
| 20260510011522 | 23 | 106 | 0.0 | 1.6 | 0.00 | 0.00 | 0.00 | 85 | 1041.2 |
| 20260510011018 | 23 | 106 | 0.0 | 0.0 | 0.00 | 0.00 | 0.00 | 84 | 1041.2 |
| 20260510010518 | 23 | 106 | 0.0 | 0.0 | 0.00 | 0.00 | 0.00 | 84 | 1041.2 |
| 20260510010019 | 23 | 106 | 0.0 | 0.0 | 0.00 | 0.00 | 0.00 | 83 | 1041.1 |
| 20260510005518 | 23 | 106 | 0.0 | 1.6 | 0.00 | 0.00 | 0.00 | 83 | 1040.9 |
| 20260510005017 | 23 | 105 | 0.0 | 3.2 | 0.00 | 0.00 | 0.00 | 83 | 1040.8 |
| 20260510004517 | 23 | 55 | 0.0 | 6.4 | 0.00 | 0.00 | 0.00 | 82 | 1040.8 |
| 20260510004020 | 23 | 24 | 1.6 | 6.4 | 0.00 | 0.00 | 0.00 | 82 | 1040.9 |
| 20260510003525 | 23 | 267 | 0.0 | 4.8 | 0.00 | 0.00 | 0.00 | 82 | 1040.8 |
| 20260510003017 | 23 | 34 | 0.0 | 4.8 | 0.00 | 0.00 | 0.00 | 81 | 1040.6 |
| 20260510002516 | 23 | 19 | 0.0 | 6.4 | 0.00 | 0.00 | 0.00 | 81 | 1040.7 |
| 20260510002016 | 23 | 41 | 1.6 | 8.0 | 0.00 | 0.00 | 0.00 | 80 | 1040.6 |
| 20260510001516 | 23 | 355 | 3.2 | 14.5 | 0.00 | 0.00 | 0.00 | 80 | 1040.7 |
| 20260510001016 | 23 | 44 | 6.4 | 14.5 | 0.00 | 0.00 | 0.00 | 80 | 1040.6 |
| 20260510000516 | 23 | 26 | 6.4 | 12.9 | 0.00 | 0.00 | 0.00 | 80 | 1040.6 |
| 20260510000016 | 23 | 27 | 6.4 | 9.7 | 0.00 | 0.00 | 0.00 | 80 | 1040.5 |
| 20260509235516 | 23 | 42 | 4.8 | 14.5 | 0.00 | 0.00 | 0.00 | 80 | 1040.4 |
| 20260509235015 | 24 | 88 | 6.4 | 14.5 | 0.00 | 0.00 | 0.00 | 79 | 1040.5 |
| 20260509234528 | 24 | 24 | 4.8 | 14.5 | 0.00 | 0.00 | 0.00 | 80 | 1040.5 |
| 20260509234016 | 24 | 36 | 8.0 | 14.5 | 0.00 | 0.00 | 0.00 | 80 | 1040.4 |
| 20260509233514 | 24 | 31 | 4.8 | 16.1 | 0.00 | 0.00 | 0.00 | 79 | 1040.3 |
| 20260509233030 | 24 | 39 | 4.8 | 16.1 | 0.00 | 0.00 | 0.00 | 79 | 1040.3 |
| 20260509232514 | 24 | 355 | 4.8 | 16.1 | 0.00 | 0.00 | 0.00 | 80 | 1040.4 |
| 20260509232014 | 24 | 15 | 6.4 | 17.7 | 0.00 | 0.00 | 0.00 | 79 | 1040.4 |
| 20260509231514 | 25 | 14 | 6.4 | 17.7 | 0.00 | 0.00 | 0.00 | 79 | 1040.5 |
| 20260509231013 | 25 | 305 | 1.6 | 11.3 | 0.00 | 0.00 | 0.00 | 79 | 1040.4 |
| 20260509230513 | 25 | 325 | 3.2 | 11.3 | 0.00 | 0.00 | 0.00 | 79 | 1040.4 |
| 20260509230013 | 25 | 35 | 3.2 | 17.7 | 0.00 | 0.00 | 0.00 | 79 | 1040.4 |
| 20260509225513 | 25 | 305 | 8.0 | 20.9 | 0.00 | 0.00 | 0.00 | 77 | 1040.3 |
| 20260509225013 | 26 | 50 | 8.0 | 20.9 | 0.00 | 0.00 | 0.00 | 76 | 1040.3 |
| 20260509224516 | 26 | 29 | 6.4 | 19.3 | 0.00 | 0.00 | 0.00 | 74 | 1040.2 |
| 20260509224016 | 27 | 29 | 8.0 | 20.9 | 0.00 | 0.00 | 0.00 | 72 | 1040.0 |
| 20260509223512 | 27 | 20 | 9.7 | 20.9 | 0.00 | 0.00 | 0.00 | 69 | 1039.9 |
| 20260509223015 | 27 | 261 | 3.2 | 16.1 | 0.00 | 0.00 | 0.00 | 68 | 1040.0 |
| 20260509222512 | 27 | 64 | 4.8 | 16.1 | 0.00 | 0.00 | 0.00 | 68 | 1039.9 |
| 20260509222011 | 28 | 102 | 3.2 | 14.5 | 0.00 | 0.00 | 0.00 | 67 | 1039.8 |
| 20260509221512 | 28 | 121 | 3.2 | 14.5 | 0.00 | 0.00 | 0.00 | 67 | 1039.8 |
| 20260509221014 | 28 | 50 | 6.4 | 16.1 | 0.00 | 0.00 | 0.00 | 67 | 1039.8 |
| 20260509220511 | 28 | 45 | 3.2 | 16.1 | 0.00 | 0.00 | 0.00 | 66 | 1039.6 |
| 20260509220018 | 28 | 325 | 3.2 | 8.0 | 0.00 | 0.00 | 0.00 | 66 | 1039.7 |
| 20260509215511 | 28 | 67 | 1.6 | 9.7 | 0.00 | 0.00 | 0.00 | 66 | 1039.6 |
| 20260509215017 | 28 | 28 | 3.2 | 12.9 | 0.00 | 0.00 | 0.00 | 65 | 1039.5 |
| 20260509214511 | 28 | 71 | 1.6 | 9.7 | 0.00 | 0.00 | 0.00 | 64 | 1039.4 |
| 20260509214012 | 28 | 26 | 1.6 | 9.7 | 0.00 | 0.00 | 0.00 | 64 | 1039.2 |
| 20260509213522 | 28 | 360 | 3.2 | 14.5 | 0.00 | 0.00 | 0.00 | 63 | 1039.2 |
| 20260509213010 | 28 | 321 | 3.2 | 14.5 | 0.00 | 0.00 | 0.00 | 64 | 1039.2 |
| 20260509212509 | 29 | 15 | 3.2 | 16.1 | 0.00 | 0.00 | 0.00 | 63 | 1039.1 |
| 20260509212013 | 29 | 37 | 3.2 | 16.1 | 0.00 | 0.00 | 0.00 | 62 | 1039.0 |
| 20260509211509 | 29 | 292 | 3.2 | 12.9 | 0.00 | 0.00 | 0.00 | 62 | 1039.0 |
| 20260509211009 | 30 | 271 | 4.8 | 14.5 | 0.00 | 0.00 | 0.00 | 61 | 1038.9 |
| 20260509210509 | 30 | 276 | 4.8 | 14.5 | 0.00 | 0.00 | 0.00 | 61 | 1038.8 |
| 20260509210009 | 30 | 282 | 4.8 | 14.5 | 0.00 | 0.00 | 0.00 | 62 | 1038.9 |
| 20260509205508 | 30 | 84 | 3.2 | 12.9 | 0.00 | 0.00 | 0.00 | 61 | 1038.9 |
| 20260509205008 | 30 | 298 | 4.8 | 14.5 | 0.00 | 0.00 | 0.00 | 59 | 1038.8 |
| 20260509204508 | 30 | 255 | 6.4 | 14.5 | 0.00 | 0.00 | 0.00 | 56 | 1038.9 |
| 20260509204014 | 30 | 42 | 3.2 | 12.9 | 0.00 | 0.00 | 0.00 | 59 | 1039.0 |
| 20260509203508 | 31 | 119 | 3.2 | 22.5 | 0.00 | 0.00 | 0.00 | 58 | 1038.9 |
| 20260509203008 | 30 | 142 | 1.6 | 22.5 | 0.00 | 0.00 | 0.00 | 59 | 1038.9 |
| 20260509202507 | 30 | 232 | 1.6 | 22.5 | 0.00 | 0.00 | 0.00 | 60 | 1038.9 |
| 20260509202006 | 30 | 261 | 9.7 | 22.5 | 0.00 | 0.00 | 0.00 | 59 | 1039.0 |
| 20260509201507 | 30 | 278 | 11.3 | 17.7 | 0.00 | 0.00 | 0.00 | 59 | 1039.0 |
| 20260509201008 | 30 | 287 | 6.4 | 16.1 | 0.00 | 0.00 | 0.00 | 62 | 1039.1 |
| 20260509200510 | 29 | 316 | 4.8 | 14.5 | 0.00 | 0.00 | 0.00 | 62 | 1039.1 |
| 20260509200006 | 29 | 30 | 6.4 | 24.1 | 0.00 | 0.00 | 0.00 | 62 | 1039.0 |
| 20260509195506 | 29 | 283 | 8.0 | 24.1 | 0.00 | 0.00 | 0.00 | 59 | 1039.1 |
| 20260509195007 | 29 | 271 | 6.4 | 12.9 | 0.00 | 0.00 | 0.00 | 61 | 1039.1 |
| 20260509194508 | 29 | 325 | 3.2 | 16.1 | 0.00 | 0.00 | 0.00 | 59 | 1039.1 |
| 20260509194005 | 29 | 273 | 8.0 | 19.3 | 0.00 | 0.00 | 0.00 | 60 | 1039.0 |
| 20260509193504 | 30 | 277 | 8.0 | 19.3 | 0.00 | 0.00 | 0.00 | 59 | 1039.0 |
| 20260509193005 | 30 | 315 | 4.8 | 16.1 | 0.00 | 0.00 | 0.00 | 58 | 1039.0 |
| 20260509192504 | 30 | 279 | 8.0 | 16.1 | 0.00 | 0.00 | 0.00 | 56 | 1039.0 |
| 20260509192004 | 30 | 259 | 9.7 | 16.1 | 0.00 | 0.00 | 0.00 | 57 | 1039.1 |
| 20260509191503 | 30 | 302 | 3.2 | 20.9 | 0.00 | 0.00 | 0.00 | 57 | 1039.2 |
| 20260509191004 | 30 | 282 | 9.7 | 20.9 | 0.00 | 0.00 | 0.00 | 55 | 1039.4 |
| 20260509190506 | 30 | 196 | 8.0 | 20.9 | 0.00 | 0.00 | 0.00 | 54 | 1039.5 |
| 20260509190002 | 30 | 261 | 4.8 | 20.9 | 0.00 | 0.00 | 0.00 | 57 | 1039.5 |
| 20260509185504 | 30 | 279 | 4.8 | 19.3 | 0.00 | 0.00 | 0.00 | 57 | 1039.5 |
| 20260509185003 | 30 | 283 | 6.4 | 25.7 | 0.00 | 0.00 | 0.00 | 55 | 1039.4 |
| 20260509184505 | 30 | 277 | 9.7 | 25.7 | 0.00 | 0.00 | 0.00 | 57 | 1039.3 |
| 20260509184059 | 30 | 251 | 9.7 | 19.3 | 0.00 | 0.00 | 0.00 | 57 | 1039.4 |
| 20260509183559 | 30 | 280 | 9.7 | 17.7 | 0.00 | 0.00 | 0.00 | 57 | 1039.5 |
| 20260509183059 | 30 | 328 | 4.8 | 20.9 | 0.00 | 0.00 | 0.00 | 58 | 1039.5 |
| 20260509182600 | 30 | 296 | 6.4 | 22.5 | 0.00 | 0.00 | 0.00 | 59 | 1039.4 |
| 20260509182058 | 30 | 303 | 11.3 | 22.5 | 0.00 | 0.00 | 0.00 | 58 | 1039.6 |
| 20260509181604 | 29 | 256 | 11.3 | 20.9 | 0.00 | 0.00 | 0.00 | 65 | 1039.6 |
| 20260509181059 | 28 | 260 | 3.2 | 11.3 | 0.00 | 0.00 | 0.00 | 74 | 1039.7 |
| 20260509180601 | 27 | 262 | 0.0 | 14.5 | 0.00 | 0.00 | 0.00 | 81 | 1039.6 |
| 20260509180103 | 28 | 232 | 3.2 | 22.5 | 0.00 | 0.00 | 0.00 | 72 | 1039.8 |
| 20260509175557 | 28 | 242 | 4.8 | 14.5 | 0.00 | 0.00 | 0.00 | 74 | 1039.8 |
| 20260509175057 | 29 | 204 | 0.0 | 8.0 | 0.00 | 0.00 | 0.00 | 72 | 1040.1 |
| 20260509174557 | 30 | 236 | 4.8 | 14.5 | 0.00 | 0.00 | 0.00 | 62 | 1040.0 |
| 20260509174056 | 29 | 258 | 6.4 | 14.5 | 0.00 | 0.00 | 0.00 | 63 | 1039.9 |
| 20260509173600 | 29 | 248 | 1.6 | 8.0 | 0.00 | 0.00 | 0.00 | 67 | 1040.0 |
| 20260509173101 | 29 | 304 | 0.0 | 12.9 | 0.00 | 0.00 | 0.00 | 65 | 1040.0 |
| 20260509172556 | 30 | 309 | 3.2 | 24.1 | 0.00 | 0.00 | 0.00 | 61 | 1040.0 |
| 20260509172057 | 31 | 259 | 11.3 | 24.1 | 0.00 | 0.00 | 0.00 | 58 | 1039.9 |
| 20260509171556 | 31 | 258 | 4.8 | 12.9 | 0.00 | 0.00 | 0.00 | 59 | 1039.8 |